sensor_id;sensor_type;location;lat;lon;timestamp;pressure;altitude;pressure_sealevel;temperature;humidity
67842;BME280;54642;59.126;37.876;2023-06-14T00:01:03;100498.91;;;17.41;53.40
67842;BME280;54642;59.126;37.876;2023-06-14T00:03:31;100466.22;;;17.23;53.05
67842;BME280;54642;59.126;37.876;2023-06-14T00:05:57;100469.81;;;17.19;52.72
67842;BME280;54642;59.126;37.876;2023-06-14T00:08:23;100498.19;;;17.36;52.56
67842;BME280;54642;59.126;37.876;2023-06-14T00:10:51;100499.88;;;17.39;52.55
67842;BME280;54642;59.126;37.876;2023-06-14T00:13:17;100481.91;;;17.23;52.42
67842;BME280;54642;59.126;37.876;2023-06-14T00:15:42;100513.81;;;17.39;52.41
67842;BME280;54642;59.126;37.876;2023-06-14T00:18:08;100507.81;;;17.36;52.48
67842;BME280;54642;59.126;37.876;2023-06-14T00:20:37;100479.41;;;17.19;52.76
67842;BME280;54642;59.126;37.876;2023-06-14T00:23:03;100512.25;;;17.32;52.73
67842;BME280;54642;59.126;37.876;2023-06-14T00:25:28;100533.16;;;17.35;52.86
67842;BME280;54642;59.126;37.876;2023-06-14T00:27:56;100485.81;;;17.08;53.18
67842;BME280;54642;59.126;37.876;2023-06-14T00:30:22;100521.09;;;17.28;53.20
67842;BME280;54642;59.126;37.876;2023-06-14T00:32:48;100521.09;;;17.28;53.38
67842;BME280;54642;59.126;37.876;2023-06-14T00:35:14;100523.84;;;17.23;53.10
67842;BME280;54642;59.126;37.876;2023-06-14T00:37:40;100516.78;;;17.25;52.90
67842;BME280;54642;59.126;37.876;2023-06-14T00:40:07;100515.16;;;17.21;53.04
67842;BME280;54642;59.126;37.876;2023-06-14T00:42:33;100475.59;;;16.98;53.30
67842;BME280;54642;59.126;37.876;2023-06-14T00:45:00;100466.97;;;16.94;53.59
67842;BME280;54642;59.126;37.876;2023-06-14T00:47:26;100469.63;;;16.91;53.78
67842;BME280;54642;59.126;37.876;2023-06-14T00:49:53;100469.69;;;16.89;53.87
67842;BME280;54642;59.126;37.876;2023-06-14T00:52:22;100511.84;;;17.13;53.67
67842;BME280;54642;59.126;37.876;2023-06-14T00:54:50;100500.69;;;17.06;53.47
67842;BME280;54642;59.126;37.876;2023-06-14T00:57:16;100476.63;;;16.92;53.66
67842;BME280;54642;59.126;37.876;2023-06-14T00:59:44;100506.78;;;17.07;53.20
67842;BME280;54642;59.126;37.876;2023-06-14T01:02:11;100518.88;;;17.11;52.53
67842;BME280;54642;59.126;37.876;2023-06-14T01:04:39;100505.75;;;17.12;52.44
67842;BME280;54642;59.126;37.876;2023-06-14T01:07:23;100511.00;;;17.12;51.96
67842;BME280;54642;59.126;37.876;2023-06-14T01:13:21;100496.31;;;17.07;51.30
67842;BME280;54642;59.126;37.876;2023-06-14T01:15:50;100483.53;;;16.93;51.07
67842;BME280;54642;59.126;37.876;2023-06-14T01:18:17;100486.97;;;16.95;50.82
67842;BME280;54642;59.126;37.876;2023-06-14T01:20:45;100489.72;;;16.90;50.84
67842;BME280;54642;59.126;37.876;2023-06-14T01:23:19;100493.09;;;16.95;50.78
67842;BME280;54642;59.126;37.876;2023-06-14T01:25:46;100445.91;;;16.59;50.35
67842;BME280;54642;59.126;37.876;2023-06-14T01:28:14;100458.03;;;16.65;50.49
67842;BME280;54642;59.126;37.876;2023-06-14T01:30:44;100492.47;;;16.83;50.50
67842;BME280;54642;59.126;37.876;2023-06-14T01:33:33;100478.72;;;16.74;50.29
67842;BME280;54642;59.126;37.876;2023-06-14T01:35:59;100432.50;;;16.37;50.33
67842;BME280;54642;59.126;37.876;2023-06-14T01:38:30;100494.44;;;16.74;50.37
67842;BME280;54642;59.126;37.876;2023-06-14T01:40:58;100488.38;;;16.72;50.14
67842;BME280;54642;59.126;37.876;2023-06-14T01:43:25;100446.38;;;16.39;50.21
67842;BME280;54642;59.126;37.876;2023-06-14T01:45:53;100442.88;;;16.41;50.34
67842;BME280;54642;59.126;37.876;2023-06-14T01:48:20;100436.13;;;16.30;50.26
67842;BME280;54642;59.126;37.876;2023-06-14T01:50:48;100496.34;;;16.66;50.48
67842;BME280;54642;59.126;37.876;2023-06-14T01:53:15;100492.09;;;16.62;50.69
67842;BME280;54642;59.126;37.876;2023-06-14T01:55:41;100498.09;;;16.67;50.82
67842;BME280;54642;59.126;37.876;2023-06-14T01:58:09;100449.03;;;16.38;50.51
67842;BME280;54642;59.126;37.876;2023-06-14T02:00:35;100452.56;;;16.37;50.63
67842;BME280;54642;59.126;37.876;2023-06-14T02:03:02;100465.50;;;16.42;50.79
67842;BME280;54642;59.126;37.876;2023-06-14T02:05:31;100470.66;;;16.46;50.75
67842;BME280;54642;59.126;37.876;2023-06-14T02:07:56;100447.47;;;16.29;50.70
67842;BME280;54642;59.126;37.876;2023-06-14T02:10:23;100492.31;;;16.53;50.81
67842;BME280;54642;59.126;37.876;2023-06-14T02:12:49;100499.09;;;16.62;50.79
67842;BME280;54642;59.126;37.876;2023-06-14T02:15:15;100445.63;;;16.34;50.96
67842;BME280;54642;59.126;37.876;2023-06-14T02:17:45;100396.56;;;16.07;51.03
67842;BME280;54642;59.126;37.876;2023-06-14T02:20:13;100488.56;;;16.63;51.09
67842;BME280;54642;59.126;37.876;2023-06-14T02:22:39;100476.44;;;16.61;50.94
67842;BME280;54642;59.126;37.876;2023-06-14T02:25:07;100480.81;;;16.60;50.83
67842;BME280;54642;59.126;37.876;2023-06-14T02:27:34;100423.94;;;16.29;50.75
67842;BME280;54642;59.126;37.876;2023-06-14T02:30:00;100484.31;;;16.59;50.78
67842;BME280;54642;59.126;37.876;2023-06-14T02:32:26;100432.53;;;16.34;50.97
67842;BME280;54642;59.126;37.876;2023-06-14T02:34:53;100479.03;;;16.61;50.74
67842;BME280;54642;59.126;37.876;2023-06-14T02:37:19;100445.34;;;16.47;50.82
67842;BME280;54642;59.126;37.876;2023-06-14T02:39:45;100486.69;;;16.70;51.00
67842;BME280;54642;59.126;37.876;2023-06-14T02:42:11;100495.25;;;16.76;50.87
67842;BME280;54642;59.126;37.876;2023-06-14T02:44:37;100463.38;;;16.59;51.20
67842;BME280;54642;59.126;37.876;2023-06-14T02:47:04;100480.47;;;16.74;51.05
67842;BME280;54642;59.126;37.876;2023-06-14T02:49:30;100485.63;;;16.77;50.89
67842;BME280;54642;59.126;37.876;2023-06-14T02:51:56;100486.41;;;16.82;51.35
67842;BME280;54642;59.126;37.876;2023-06-14T02:54:22;100501.06;;;16.91;51.27
67842;BME280;54642;59.126;37.876;2023-06-14T02:56:49;100487.91;;;16.94;51.10
67842;BME280;54642;59.126;37.876;2023-06-14T02:59:15;100484.31;;;16.98;51.42
67842;BME280;54642;59.126;37.876;2023-06-14T03:01:43;100486.91;;;16.98;51.25
67842;BME280;54642;59.126;37.876;2023-06-14T03:04:12;100490.41;;;16.97;51.15
67842;BME280;54642;59.126;37.876;2023-06-14T03:06:47;100508.44;;;17.09;51.26
67842;BME280;54642;59.126;37.876;2023-06-14T03:09:18;100504.81;;;17.15;51.19
67842;BME280;54642;59.126;37.876;2023-06-14T03:11:45;100460.81;;;16.95;51.34
67842;BME280;54642;59.126;37.876;2023-06-14T03:14:11;100497.75;;;17.19;51.35
67842;BME280;54642;59.126;37.876;2023-06-14T03:16:39;100497.81;;;17.17;51.08
67842;BME280;54642;59.126;37.876;2023-06-14T03:19:08;100442.63;;;16.90;51.37
67842;BME280;54642;59.126;37.876;2023-06-14T03:21:37;100477.84;;;17.11;51.43
67842;BME280;54642;59.126;37.876;2023-06-14T03:24:04;100497.59;;;17.25;51.09
67842;BME280;54642;59.126;37.876;2023-06-14T03:26:31;100504.38;;;17.33;51.25
67842;BME280;54642;59.126;37.876;2023-06-14T03:29:00;100515.66;;;17.36;50.78
67842;BME280;54642;59.126;37.876;2023-06-14T03:31:26;100409.53;;;16.86;50.91
67842;BME280;54642;59.126;37.876;2023-06-14T03:33:53;100487.69;;;17.36;50.96
67842;BME280;54642;59.126;37.876;2023-06-14T03:36:19;100475.66;;;17.29;50.76
67842;BME280;54642;59.126;37.876;2023-06-14T03:38:45;100448.97;;;17.14;51.25
67842;BME280;54642;59.126;37.876;2023-06-14T03:41:13;100497.94;;;17.45;50.97
67842;BME280;54642;59.126;37.876;2023-06-14T03:43:39;100442.75;;;17.19;50.81
67842;BME280;54642;59.126;37.876;2023-06-14T03:46:05;100459.97;;;17.27;50.87
67842;BME280;54642;59.126;37.876;2023-06-14T03:48:33;100479.84;;;17.36;50.92
67842;BME280;54642;59.126;37.876;2023-06-14T03:50:58;100483.84;;;17.51;50.81
67842;BME280;54642;59.126;37.876;2023-06-14T03:53:25;100504.41;;;17.65;50.85
67842;BME280;54642;59.126;37.876;2023-06-14T03:55:54;100481.56;;;17.70;50.54
67842;BME280;54642;59.126;37.876;2023-06-14T03:58:23;100482.31;;;17.73;50.49
67842;BME280;54642;59.126;37.876;2023-06-14T04:00:49;100485.69;;;17.79;49.68
67842;BME280;54642;59.126;37.876;2023-06-14T04:03:15;100486.53;;;17.79;49.83
67842;BME280;54642;59.126;37.876;2023-06-14T04:05:42;100469.00;;;17.81;49.55
67842;BME280;54642;59.126;37.876;2023-06-14T04:08:09;100494.91;;;17.94;49.48
67842;BME280;54642;59.126;37.876;2023-06-14T04:10:36;100467.13;;;17.86;49.22
67842;BME280;54642;59.126;37.876;2023-06-14T04:13:02;100470.34;;;17.98;49.62
67842;BME280;54642;59.126;37.876;2023-06-14T04:15:29;100432.41;;;17.78;49.86
67842;BME280;54642;59.126;37.876;2023-06-14T04:17:56;100418.38;;;17.79;49.52
67842;BME280;54642;59.126;37.876;2023-06-14T04:20:23;100481.13;;;18.17;49.74
67842;BME280;54642;59.126;37.876;2023-06-14T04:22:52;100466.28;;;18.17;49.73
67842;BME280;54642;59.126;37.876;2023-06-14T04:25:19;100440.22;;;18.11;49.86
67842;BME280;54642;59.126;37.876;2023-06-14T04:27:46;100456.47;;;18.22;49.59
67842;BME280;54642;59.126;37.876;2023-06-14T04:30:13;100461.97;;;18.43;49.88
67842;BME280;54642;59.126;37.876;2023-06-14T04:32:45;100467.03;;;18.49;49.65
67842;BME280;54642;59.126;37.876;2023-06-14T04:35:12;100453.97;;;18.47;49.65
67842;BME280;54642;59.126;37.876;2023-06-14T04:37:41;100461.59;;;18.55;49.58
67842;BME280;54642;59.126;37.876;2023-06-14T04:40:08;100450.94;;;18.60;49.60
67842;BME280;54642;59.126;37.876;2023-06-14T04:42:36;100449.84;;;18.67;49.95
67842;BME280;54642;59.126;37.876;2023-06-14T04:45:04;100460.81;;;18.80;49.96
67842;BME280;54642;59.126;37.876;2023-06-14T04:47:30;100470.28;;;18.85;50.09
67842;BME280;54642;59.126;37.876;2023-06-14T04:49:57;100465.59;;;18.95;50.52
67842;BME280;54642;59.126;37.876;2023-06-14T04:52:26;100429.41;;;18.77;49.90
67842;BME280;54642;59.126;37.876;2023-06-14T04:54:53;100469.72;;;19.02;50.23
67842;BME280;54642;59.126;37.876;2023-06-14T04:57:24;100447.06;;;19.00;50.93
67842;BME280;54642;59.126;37.876;2023-06-14T04:59:54;100464.91;;;19.15;51.29
67842;BME280;54642;59.126;37.876;2023-06-14T05:02:22;100426.91;;;19.00;51.39
67842;BME280;54642;59.126;37.876;2023-06-14T05:04:53;100458.44;;;19.26;51.62
67842;BME280;54642;59.126;37.876;2023-06-14T05:07:19;100468.00;;;19.28;51.34
67842;BME280;54642;59.126;37.876;2023-06-14T05:09:47;100478.19;;;19.37;51.67
67842;BME280;54642;59.126;37.876;2023-06-14T05:12:13;100459.78;;;19.37;51.40
67842;BME280;54642;59.126;37.876;2023-06-14T05:14:43;100472.72;;;19.43;51.66
67842;BME280;54642;59.126;37.876;2023-06-14T05:17:10;100456.03;;;19.45;51.37
67842;BME280;54642;59.126;37.876;2023-06-14T05:19:36;100424.22;;;19.27;51.20
67842;BME280;54642;59.126;37.876;2023-06-14T05:22:04;100459.38;;;19.50;51.56
67842;BME280;54642;59.126;37.876;2023-06-14T05:24:30;100452.97;;;19.57;51.49
67842;BME280;54642;59.126;37.876;2023-06-14T05:26:57;100411.34;;;19.45;51.44
67842;BME280;54642;59.126;37.876;2023-06-14T05:29:23;100461.31;;;19.68;50.83
67842;BME280;54642;59.126;37.876;2023-06-14T05:31:49;100457.59;;;19.75;51.00
67842;BME280;54642;59.126;37.876;2023-06-14T05:34:15;100464.56;;;19.76;50.73
67842;BME280;54642;59.126;37.876;2023-06-14T05:36:41;100380.34;;;19.29;50.82
67842;BME280;54642;59.126;37.876;2023-06-14T05:39:07;100422.13;;;19.62;50.75
67842;BME280;54642;59.126;37.876;2023-06-14T05:41:34;100456.91;;;19.94;50.83
67842;BME280;54642;59.126;37.876;2023-06-14T05:43:59;100425.69;;;19.85;51.04
67842;BME280;54642;59.126;37.876;2023-06-14T05:46:26;100443.34;;;20.05;51.05
67842;BME280;54642;59.126;37.876;2023-06-14T05:48:52;100438.03;;;20.06;50.85
67842;BME280;54642;59.126;37.876;2023-06-14T05:51:18;100467.19;;;20.24;50.80
67842;BME280;54642;59.126;37.876;2023-06-14T05:53:45;100455.75;;;20.25;50.96
67842;BME280;54642;59.126;37.876;2023-06-14T05:56:14;100439.22;;;20.21;51.05
67842;BME280;54642;59.126;37.876;2023-06-14T05:58:40;100409.75;;;20.11;50.97
67842;BME280;54642;59.126;37.876;2023-06-14T06:01:06;100448.44;;;20.31;50.66
67842;BME280;54642;59.126;37.876;2023-06-14T06:03:33;100465.44;;;20.46;50.87
67842;BME280;54642;59.126;37.876;2023-06-14T06:05:59;100467.81;;;20.52;50.26
67842;BME280;54642;59.126;37.876;2023-06-14T06:08:26;100434.34;;;20.34;50.69
67842;BME280;54642;59.126;37.876;2023-06-14T06:10:51;100461.66;;;20.53;50.39
67842;BME280;54642;59.126;37.876;2023-06-14T06:13:17;100462.88;;;20.67;50.56
67842;BME280;54642;59.126;37.876;2023-06-14T06:15:43;100432.78;;;20.50;50.04
67842;BME280;54642;59.126;37.876;2023-06-14T06:18:12;100468.34;;;20.84;49.91
67842;BME280;54642;59.126;37.876;2023-06-14T06:20:37;100431.06;;;20.73;49.70
67842;BME280;54642;59.126;37.876;2023-06-14T06:23:03;100458.97;;;20.98;48.90
67842;BME280;54642;59.126;37.876;2023-06-14T06:25:29;100456.78;;;21.09;48.02
67842;BME280;54642;59.126;37.876;2023-06-14T06:27:57;100466.88;;;21.20;47.91
67842;BME280;54642;59.126;37.876;2023-06-14T06:30:24;100473.97;;;21.38;48.06
67842;BME280;54642;59.126;37.876;2023-06-14T06:32:50;100425.41;;;21.23;48.34
67842;BME280;54642;59.126;37.876;2023-06-14T06:35:17;100453.09;;;21.54;47.65
67842;BME280;54642;59.126;37.876;2023-06-14T06:37:43;100458.50;;;21.72;47.14
67842;BME280;54642;59.126;37.876;2023-06-14T06:40:09;100466.47;;;21.89;46.92
67842;BME280;54642;59.126;37.876;2023-06-14T06:42:36;100388.88;;;21.55;46.09
67842;BME280;54642;59.126;37.876;2023-06-14T06:45:04;100461.72;;;21.97;46.00
67842;BME280;54642;59.126;37.876;2023-06-14T06:47:31;100477.13;;;22.06;45.30
67842;BME280;54642;59.126;37.876;2023-06-14T06:49:57;100457.34;;;21.96;44.88
67842;BME280;54642;59.126;37.876;2023-06-14T06:52:23;100468.00;;;21.95;44.09
67842;BME280;54642;59.126;37.876;2023-06-14T06:54:49;100457.00;;;21.85;43.43
67842;BME280;54642;59.126;37.876;2023-06-14T06:57:19;100430.50;;;21.67;43.20
67842;BME280;54642;59.126;37.876;2023-06-14T06:59:45;100474.09;;;21.76;43.05
67842;BME280;54642;59.126;37.876;2023-06-14T07:02:11;100421.91;;;21.43;42.90
67842;BME280;54642;59.126;37.876;2023-06-14T07:04:37;100423.59;;;21.44;42.90
67842;BME280;54642;59.126;37.876;2023-06-14T07:07:03;100446.88;;;21.55;42.81
67842;BME280;54642;59.126;37.876;2023-06-14T07:09:29;100462.03;;;21.70;42.79
67842;BME280;54642;59.126;37.876;2023-06-14T07:11:55;100469.63;;;21.97;42.23
67842;BME280;54642;59.126;37.876;2023-06-14T07:14:21;100441.44;;;21.98;41.90
67842;BME280;54642;59.126;37.876;2023-06-14T07:16:49;100466.09;;;22.36;41.51
67842;BME280;54642;59.126;37.876;2023-06-14T07:19:15;100408.38;;;22.09;41.15
67842;BME280;54642;59.126;37.876;2023-06-14T07:21:42;100454.31;;;22.43;40.73
67842;BME280;54642;59.126;37.876;2023-06-14T07:24:08;100464.13;;;22.59;40.12
67842;BME280;54642;59.126;37.876;2023-06-14T07:26:34;100461.47;;;22.59;40.19
67842;BME280;54642;59.126;37.876;2023-06-14T07:29:01;100462.59;;;22.72;39.20
67842;BME280;54642;59.126;37.876;2023-06-14T07:31:27;100467.13;;;22.88;39.66
67842;BME280;54642;59.126;37.876;2023-06-14T07:33:53;100417.53;;;22.75;39.59
67842;BME280;54642;59.126;37.876;2023-06-14T07:36:19;100424.53;;;22.94;39.00
67842;BME280;54642;59.126;37.876;2023-06-14T07:38:46;100423.09;;;23.06;38.91
67842;BME280;54642;59.126;37.876;2023-06-14T07:41:12;100450.66;;;23.35;39.27
67842;BME280;54642;59.126;37.876;2023-06-14T07:43:38;100460.63;;;23.47;38.78
67842;BME280;54642;59.126;37.876;2023-06-14T07:46:04;100389.19;;;23.14;38.20
67842;BME280;54642;59.126;37.876;2023-06-14T07:48:38;100448.31;;;23.46;37.95
67842;BME280;54642;59.126;37.876;2023-06-14T07:51:04;100462.00;;;23.54;38.18
67842;BME280;54642;59.126;37.876;2023-06-14T07:53:30;100457.56;;;23.55;38.08
67842;BME280;54642;59.126;37.876;2023-06-14T07:55:56;100444.53;;;23.68;37.89
67842;BME280;54642;59.126;37.876;2023-06-14T07:58:23;100449.03;;;23.83;37.87
67842;BME280;54642;59.126;37.876;2023-06-14T08:00:49;100410.59;;;23.76;37.25
67842;BME280;54642;59.126;37.876;2023-06-14T08:03:15;100450.75;;;24.00;37.53
67842;BME280;54642;59.126;37.876;2023-06-14T08:05:41;100459.19;;;23.91;37.03
67842;BME280;54642;59.126;37.876;2023-06-14T08:08:07;100415.34;;;23.69;37.21
67842;BME280;54642;59.126;37.876;2023-06-14T08:10:32;100463.25;;;24.14;36.02
67842;BME280;54642;59.126;37.876;2023-06-14T08:12:58;100448.31;;;24.29;36.15
67842;BME280;54642;59.126;37.876;2023-06-14T08:15:24;100402.69;;;24.24;35.47
67842;BME280;54642;59.126;37.876;2023-06-14T08:17:50;100446.09;;;24.53;36.24
67842;BME280;54642;59.126;37.876;2023-06-14T08:20:16;100453.50;;;24.62;35.63
67842;BME280;54642;59.126;37.876;2023-06-14T08:22:42;100418.56;;;24.40;35.68
67842;BME280;54642;59.126;37.876;2023-06-14T08:25:09;100457.88;;;24.63;35.34
67842;BME280;54642;59.126;37.876;2023-06-14T08:27:35;100460.09;;;24.55;35.37
67842;BME280;54642;59.126;37.876;2023-06-14T08:30:01;100464.19;;;24.45;35.56
67842;BME280;54642;59.126;37.876;2023-06-14T08:32:29;100439.56;;;24.43;35.02
67842;BME280;54642;59.126;37.876;2023-06-14T08:34:55;100435.50;;;24.53;34.66
67842;BME280;54642;59.126;37.876;2023-06-14T08:37:21;100454.28;;;24.64;34.86
67842;BME280;54642;59.126;37.876;2023-06-14T08:39:47;100457.19;;;24.76;35.26
67842;BME280;54642;59.126;37.876;2023-06-14T08:42:14;100443.47;;;24.83;35.93
67842;BME280;54642;59.126;37.876;2023-06-14T08:44:40;100426.53;;;24.86;34.43
67842;BME280;54642;59.126;37.876;2023-06-14T08:47:07;100448.34;;;25.05;33.46
67842;BME280;54642;59.126;37.876;2023-06-14T08:49:37;100430.19;;;25.14;34.08
67842;BME280;54642;59.126;37.876;2023-06-14T08:52:05;100430.34;;;25.26;33.55
67842;BME280;54642;59.126;37.876;2023-06-14T08:54:34;100445.81;;;25.18;33.56
67842;BME280;54642;59.126;37.876;2023-06-14T08:57:11;100408.81;;;24.72;33.41
67842;BME280;54642;59.126;37.876;2023-06-14T08:59:46;100446.53;;;24.91;33.69
67842;BME280;54642;59.126;37.876;2023-06-14T09:02:15;100439.25;;;24.95;33.47
67842;BME280;54642;59.126;37.876;2023-06-14T09:04:43;100437.75;;;25.05;33.02
67842;BME280;54642;59.126;37.876;2023-06-14T09:07:11;100396.94;;;24.93;33.38
67842;BME280;54642;59.126;37.876;2023-06-14T09:09:39;100427.94;;;25.22;32.85
67842;BME280;54642;59.126;37.876;2023-06-14T09:12:16;100431.63;;;25.19;32.33
67842;BME280;54642;59.126;37.876;2023-06-14T09:14:42;100440.44;;;25.20;32.49
67842;BME280;54642;59.126;37.876;2023-06-14T09:17:08;100392.84;;;24.88;32.19
67842;BME280;54642;59.126;37.876;2023-06-14T09:19:34;100418.25;;;25.06;32.32
67842;BME280;54642;59.126;37.876;2023-06-14T09:22:03;100371.66;;;24.88;32.76
67842;BME280;54642;59.126;37.876;2023-06-14T09:24:29;100423.22;;;25.27;32.45
67842;BME280;54642;59.126;37.876;2023-06-14T09:26:55;100428.38;;;25.44;32.90
67842;BME280;54642;59.126;37.876;2023-06-14T09:29:23;100419.66;;;25.57;32.79
67842;BME280;54642;59.126;37.876;2023-06-14T09:31:49;100366.41;;;25.31;32.41
67842;BME280;54642;59.126;37.876;2023-06-14T09:34:16;100385.66;;;25.49;32.77
67842;BME280;54642;59.126;37.876;2023-06-14T09:36:43;100372.97;;;25.40;32.02
67842;BME280;54642;59.126;37.876;2023-06-14T09:39:09;100360.78;;;25.21;32.32
67842;BME280;54642;59.126;37.876;2023-06-14T09:41:36;100415.00;;;25.46;32.51
67842;BME280;54642;59.126;37.876;2023-06-14T09:44:04;100413.59;;;25.26;32.75
67842;BME280;54642;59.126;37.876;2023-06-14T09:46:31;100371.06;;;24.83;32.44
67842;BME280;54642;59.126;37.876;2023-06-14T09:48:57;100409.00;;;25.14;32.72
67842;BME280;54642;59.126;37.876;2023-06-14T09:51:24;100377.72;;;25.04;32.97
67842;BME280;54642;59.126;37.876;2023-06-14T09:53:51;100405.00;;;25.21;32.61
67842;BME280;54642;59.126;37.876;2023-06-14T09:56:41;100403.97;;;25.23;32.89
67842;BME280;54642;59.126;37.876;2023-06-14T09:59:09;100392.13;;;25.15;32.34
67842;BME280;54642;59.126;37.876;2023-06-14T10:01:39;100365.88;;;24.96;32.30
67842;BME280;54642;59.126;37.876;2023-06-14T10:04:07;100398.66;;;25.23;32.61
67842;BME280;54642;59.126;37.876;2023-06-14T10:06:37;100395.97;;;25.39;32.66
67842;BME280;54642;59.126;37.876;2023-06-14T10:09:10;100391.97;;;25.32;32.66
67842;BME280;54642;59.126;37.876;2023-06-14T10:11:36;100398.47;;;25.12;33.49
67842;BME280;54642;59.126;37.876;2023-06-14T10:14:05;100388.78;;;25.11;32.89
67842;BME280;54642;59.126;37.876;2023-06-14T10:16:36;100395.63;;;25.15;32.80
67842;BME280;54642;59.126;37.876;2023-06-14T10:19:19;100355.75;;;25.02;32.50
67842;BME280;54642;59.126;37.876;2023-06-14T10:22:01;100393.88;;;25.30;33.15
67842;BME280;54642;59.126;37.876;2023-06-14T10:24:42;100375.97;;;25.48;32.71
67842;BME280;54642;59.126;37.876;2023-06-14T10:27:09;100347.63;;;25.34;32.85
67842;BME280;54642;59.126;37.876;2023-06-14T10:32:20;100383.16;;;25.60;32.90
67842;BME280;54642;59.126;37.876;2023-06-14T10:34:53;100371.72;;;25.60;33.50
67842;BME280;54642;59.126;37.876;2023-06-14T10:37:20;100337.50;;;25.41;32.69
67842;BME280;54642;59.126;37.876;2023-06-14T10:39:46;100381.00;;;25.67;32.79
67842;BME280;54642;59.126;37.876;2023-06-14T10:42:13;100367.34;;;25.59;32.75
67842;BME280;54642;59.126;37.876;2023-06-14T10:44:50;100373.13;;;25.65;33.13
67842;BME280;54642;59.126;37.876;2023-06-14T10:49:56;100363.78;;;25.87;32.52
67842;BME280;54642;59.126;37.876;2023-06-14T10:52:27;100369.50;;;25.81;32.35
67842;BME280;54642;59.126;37.876;2023-06-14T10:55:18;100377.28;;;25.69;32.63
67842;BME280;54642;59.126;37.876;2023-06-14T10:57:52;100358.44;;;25.60;32.36
67842;BME280;54642;59.126;37.876;2023-06-14T11:00:32;100378.34;;;25.67;32.76
67842;BME280;54642;59.126;37.876;2023-06-14T11:11:07;100328.50;;;25.58;31.97
67842;BME280;54642;59.126;37.876;2023-06-14T11:13:38;100330.28;;;25.57;32.02
67842;BME280;54642;59.126;37.876;2023-06-14T11:16:14;100321.47;;;25.57;31.91
67842;BME280;54642;59.126;37.876;2023-06-14T11:18:41;100319.56;;;25.59;32.55
67842;BME280;54642;59.126;37.876;2023-06-14T11:21:07;100316.63;;;25.63;32.45
67842;BME280;54642;59.126;37.876;2023-06-14T11:23:35;100351.75;;;25.81;32.25
67842;BME280;54642;59.126;37.876;2023-06-14T11:26:01;100342.78;;;25.69;32.17
67842;BME280;54642;59.126;37.876;2023-06-14T11:28:38;100319.38;;;25.62;31.94
67842;BME280;54642;59.126;37.876;2023-06-14T11:31:04;100349.75;;;25.85;31.80
67842;BME280;54642;59.126;37.876;2023-06-14T11:33:30;100342.41;;;25.76;32.44
67842;BME280;54642;59.126;37.876;2023-06-14T11:35:56;100351.34;;;25.87;32.18
67842;BME280;54642;59.126;37.876;2023-06-14T11:38:22;100311.38;;;25.76;31.68
67842;BME280;54642;59.126;37.876;2023-06-14T11:40:48;100347.94;;;26.00;32.32
67842;BME280;54642;59.126;37.876;2023-06-14T11:43:14;100294.09;;;25.83;32.08
67842;BME280;54642;59.126;37.876;2023-06-14T11:45:40;100346.72;;;26.18;32.38
67842;BME280;54642;59.126;37.876;2023-06-14T11:48:06;100325.47;;;26.18;31.99
67842;BME280;54642;59.126;37.876;2023-06-14T11:50:32;100337.97;;;26.31;32.17
67842;BME280;54642;59.126;37.876;2023-06-14T11:52:59;100308.25;;;26.11;31.50
67842;BME280;54642;59.126;37.876;2023-06-14T11:55:41;100333.91;;;26.25;31.91
67842;BME280;54642;59.126;37.876;2023-06-14T11:58:10;100345.84;;;26.45;31.13
67842;BME280;54642;59.126;37.876;2023-06-14T12:00:39;100326.50;;;26.43;31.27
67842;BME280;54642;59.126;37.876;2023-06-14T12:03:06;100311.75;;;26.52;31.65
67842;BME280;54642;59.126;37.876;2023-06-14T12:05:33;100340.59;;;26.58;30.92
67842;BME280;54642;59.126;37.876;2023-06-14T12:08:01;100305.25;;;26.43;30.98
67842;BME280;54642;59.126;37.876;2023-06-14T12:10:28;100321.50;;;26.66;30.20
67842;BME280;54642;59.126;37.876;2023-06-14T12:12:58;100302.63;;;26.56;30.58
67842;BME280;54642;59.126;37.876;2023-06-14T12:15:32;100319.84;;;26.50;30.54
67842;BME280;54642;59.126;37.876;2023-06-14T12:17:58;100293.22;;;26.24;30.63
67842;BME280;54642;59.126;37.876;2023-06-14T12:20:29;100326.75;;;26.40;30.96
67842;BME280;54642;59.126;37.876;2023-06-14T12:22:57;100236.59;;;25.97;30.33
67842;BME280;54642;59.126;37.876;2023-06-14T12:27:57;100313.72;;;26.62;30.33
67842;BME280;54642;59.126;37.876;2023-06-14T12:30:26;100311.06;;;26.62;29.83
67842;BME280;54642;59.126;37.876;2023-06-14T12:32:52;100295.72;;;26.53;29.73
67842;BME280;54642;59.126;37.876;2023-06-14T12:35:18;100304.91;;;26.62;29.98
67842;BME280;54642;59.126;37.876;2023-06-14T12:37:45;100301.91;;;26.67;29.83
67842;BME280;54642;59.126;37.876;2023-06-14T12:40:11;100295.13;;;26.62;29.87
67842;BME280;54642;59.126;37.876;2023-06-14T12:42:37;100256.38;;;26.46;30.05
67842;BME280;54642;59.126;37.876;2023-06-14T12:45:04;100298.50;;;26.65;30.27
67842;BME280;54642;59.126;37.876;2023-06-14T12:47:30;100310.47;;;26.44;30.35
67842;BME280;54642;59.126;37.876;2023-06-14T12:49:56;100297.44;;;26.14;30.42
67842;BME280;54642;59.126;37.876;2023-06-14T12:52:22;100309.88;;;26.14;30.76
67842;BME280;54642;59.126;37.876;2023-06-14T12:54:48;100295.09;;;26.10;30.90
67842;BME280;54642;59.126;37.876;2023-06-14T12:57:13;100245.34;;;25.99;31.34
67842;BME280;54642;59.126;37.876;2023-06-14T12:59:39;100301.41;;;26.34;30.30
67842;BME280;54642;59.126;37.876;2023-06-14T13:02:17;100299.75;;;26.46;30.46